sensor_id;sensor_type;location;lat;lon;timestamp;pressure;altitude;pressure_sealevel;temperature;humidity
64388;BME280;50709;52.648;4.764;2024-02-14T00:01:51;101099.44;;;12.36;79.05
64388;BME280;50709;52.648;4.764;2024-02-14T00:04:17;101104.66;;;12.30;79.25
64388;BME280;50709;52.648;4.764;2024-02-14T00:06:43;101098.53;;;12.34;79.77
64388;BME280;50709;52.648;4.764;2024-02-14T00:09:10;101090.69;;;12.25;78.63
64388;BME280;50709;52.648;4.764;2024-02-14T00:11:36;101088.97;;;12.18;79.49
64388;BME280;50709;52.648;4.764;2024-02-14T00:14:01;101079.34;;;12.26;79.54
64388;BME280;50709;52.648;4.764;2024-02-14T00:16:27;101103.81;;;12.08;79.35
64388;BME280;50709;52.648;4.764;2024-02-14T00:18:55;101095.03;;;12.41;79.31
64388;BME280;50709;52.648;4.764;2024-02-14T00:21:22;101081.91;;;12.60;78.70
64388;BME280;50709;52.648;4.764;2024-02-14T00:23:47;101082.75;;;12.70;78.11
64388;BME280;50709;52.648;4.764;2024-02-14T00:26:13;101078.34;;;12.83;78.01
64388;BME280;50709;52.648;4.764;2024-02-14T00:28:38;101082.78;;;12.64;77.82
64388;BME280;50709;52.648;4.764;2024-02-14T00:31:04;101075.81;;;12.49;79.27
64388;BME280;50709;52.648;4.764;2024-02-14T00:33:30;101077.53;;;12.59;78.36
64388;BME280;50709;52.648;4.764;2024-02-14T00:35:55;101068.72;;;12.82;78.98
64388;BME280;50709;52.648;4.764;2024-02-14T00:38:21;101080.19;;;12.37;79.70
64388;BME280;50709;52.648;4.764;2024-02-14T00:40:47;101076.59;;;12.88;78.30
64388;BME280;50709;52.648;4.764;2024-02-14T00:43:12;101078.38;;;12.79;78.20
64388;BME280;50709;52.648;4.764;2024-02-14T00:45:37;101066.19;;;12.65;77.78
64388;BME280;50709;52.648;4.764;2024-02-14T00:48:03;101068.66;;;12.95;77.69
64388;BME280;50709;52.648;4.764;2024-02-14T00:50:29;101067.06;;;12.64;78.37
64388;BME280;50709;52.648;4.764;2024-02-14T00:52:54;101067.81;;;12.95;77.96
64388;BME280;50709;52.648;4.764;2024-02-14T00:55:20;101071.34;;;12.88;76.34
64388;BME280;50709;52.648;4.764;2024-02-14T00:57:45;101078.31;;;12.93;77.31
64388;BME280;50709;52.648;4.764;2024-02-14T01:00:11;101076.56;;;12.92;76.72
64388;BME280;50709;52.648;4.764;2024-02-14T01:02:36;101081.81;;;12.92;77.89
64388;BME280;50709;52.648;4.764;2024-02-14T01:05:01;101081.75;;;13.03;76.99
64388;BME280;50709;52.648;4.764;2024-02-14T01:07:27;101073.97;;;12.86;77.60
64388;BME280;50709;52.648;4.764;2024-02-14T01:09:52;101075.75;;;12.73;78.05
64388;BME280;50709;52.648;4.764;2024-02-14T01:12:18;101087.09;;;12.80;77.52
64388;BME280;50709;52.648;4.764;2024-02-14T01:14:45;101081.06;;;12.47;78.42
64388;BME280;50709;52.648;4.764;2024-02-14T01:17:10;101089.75;;;12.60;79.08
64388;BME280;50709;52.648;4.764;2024-02-14T01:19:36;101097.59;;;12.78;78.48
64388;BME280;50709;52.648;4.764;2024-02-14T01:22:01;101089.75;;;12.75;77.18
64388;BME280;50709;52.648;4.764;2024-02-14T01:24:27;101082.69;;;12.94;77.69
64388;BME280;50709;52.648;4.764;2024-02-14T01:26:55;101104.59;;;12.64;79.44
64388;BME280;50709;52.648;4.764;2024-02-14T01:29:21;101089.75;;;12.69;78.41
64388;BME280;50709;52.648;4.764;2024-02-14T01:31:47;101092.28;;;12.92;78.00
64388;BME280;50709;52.648;4.764;2024-02-14T01:34:12;101081.78;;;12.94;77.38
64388;BME280;50709;52.648;4.764;2024-02-14T01:36:37;101074.72;;;13.15;77.09
64388;BME280;50709;52.648;4.764;2024-02-14T01:39:05;101054.66;;;13.06;75.88
64388;BME280;50709;52.648;4.764;2024-02-14T01:41:35;101094.88;;;13.00;77.79
64388;BME280;50709;52.648;4.764;2024-02-14T01:44:01;101076.59;;;12.83;78.63
64388;BME280;50709;52.648;4.764;2024-02-14T01:46:26;101092.28;;;12.97;77.88
64388;BME280;50709;52.648;4.764;2024-02-14T01:48:52;101101.03;;;12.94;77.38
64388;BME280;50709;52.648;4.764;2024-02-14T01:51:20;101099.22;;;13.12;76.57
64388;BME280;50709;52.648;4.764;2024-02-14T01:53:50;101093.97;;;13.13;76.52
64388;BME280;50709;52.648;4.764;2024-02-14T01:56:16;101095.63;;;13.28;76.48
64388;BME280;50709;52.648;4.764;2024-02-14T01:58:42;101102.72;;;13.09;75.72
64388;BME280;50709;52.648;4.764;2024-02-14T02:01:08;101100.88;;;13.30;75.75
64388;BME280;50709;52.648;4.764;2024-02-14T02:03:35;101098.28;;;13.27;75.62
64388;BME280;50709;52.648;4.764;2024-02-14T02:06:04;101089.63;;;13.08;76.83
64388;BME280;50709;52.648;4.764;2024-02-14T02:08:30;101101.84;;;13.10;76.08
64388;BME280;50709;52.648;4.764;2024-02-14T02:10:57;101097.50;;;13.00;75.78
64388;BME280;50709;52.648;4.764;2024-02-14T02:13:23;101090.38;;;13.32;75.94
64388;BME280;50709;52.648;4.764;2024-02-14T02:15:48;101101.03;;;12.91;76.69
64388;BME280;50709;52.648;4.764;2024-02-14T02:18:14;101116.69;;;13.10;77.42
64388;BME280;50709;52.648;4.764;2024-02-14T02:20:40;101107.13;;;13.01;76.71
64388;BME280;50709;52.648;4.764;2024-02-14T02:23:25;101114.09;;;13.01;77.58
64388;BME280;50709;52.648;4.764;2024-02-14T02:25:51;101113.09;;;13.37;76.09
64388;BME280;50709;52.648;4.764;2024-02-14T02:28:16;101112.28;;;13.17;76.19
64388;BME280;50709;52.648;4.764;2024-02-14T02:30:42;101107.94;;;13.06;76.76
64388;BME280;50709;52.648;4.764;2024-02-14T02:33:07;101125.34;;;13.37;76.23
64388;BME280;50709;52.648;4.764;2024-02-14T02:35:34;101115.75;;;13.25;75.63
64388;BME280;50709;52.648;4.764;2024-02-14T02:37:59;101119.28;;;13.13;77.03
64388;BME280;50709;52.648;4.764;2024-02-14T02:40:25;101117.44;;;13.44;76.05
64388;BME280;50709;52.648;4.764;2024-02-14T02:42:52;101121.09;;;13.03;76.94
64388;BME280;50709;52.648;4.764;2024-02-14T02:45:18;101112.28;;;13.18;77.05
64388;BME280;50709;52.648;4.764;2024-02-14T02:47:43;101125.41;;;13.17;77.02
64388;BME280;50709;52.648;4.764;2024-02-14T02:50:09;101123.59;;;13.37;76.00
64388;BME280;50709;52.648;4.764;2024-02-14T02:52:34;101134.94;;;13.33;75.64
64388;BME280;50709;52.648;4.764;2024-02-14T02:55:00;101127.13;;;13.36;75.91
64388;BME280;50709;52.648;4.764;2024-02-14T02:57:26;101129.69;;;13.41;75.20
64388;BME280;50709;52.648;4.764;2024-02-14T02:59:52;101129.72;;;13.30;76.13
64388;BME280;50709;52.648;4.764;2024-02-14T03:02:19;101126.19;;;13.45;75.19
64388;BME280;50709;52.648;4.764;2024-02-14T03:04:45;101125.16;;;13.69;74.68
64388;BME280;50709;52.648;4.764;2024-02-14T03:07:11;101129.69;;;13.49;75.72
64388;BME280;50709;52.648;4.764;2024-02-14T03:09:37;101135.69;;;13.63;74.65
64388;BME280;50709;52.648;4.764;2024-02-14T03:12:03;101127.03;;;13.45;75.54
64388;BME280;50709;52.648;4.764;2024-02-14T03:14:32;101126.19;;;13.50;75.79
64388;BME280;50709;52.648;4.764;2024-02-14T03:16:59;101122.72;;;13.32;75.35
64388;BME280;50709;52.648;4.764;2024-02-14T03:19:25;101124.47;;;13.30;76.42
64388;BME280;50709;52.648;4.764;2024-02-14T03:21:52;101132.34;;;13.24;76.58
64388;BME280;50709;52.648;4.764;2024-02-14T03:24:18;101124.50;;;13.27;75.40
64388;BME280;50709;52.648;4.764;2024-02-14T03:26:44;101125.34;;;13.30;75.90
64388;BME280;50709;52.648;4.764;2024-02-14T03:29:09;101140.22;;;13.36;76.71
64388;BME280;50709;52.648;4.764;2024-02-14T03:31:35;101144.59;;;13.40;74.99
64388;BME280;50709;52.648;4.764;2024-02-14T03:34:01;101144.53;;;13.50;75.80
64388;BME280;50709;52.648;4.764;2024-02-14T03:36:27;101147.97;;;13.56;75.17
64388;BME280;50709;52.648;4.764;2024-02-14T03:38:59;101142.75;;;13.53;74.83
64388;BME280;50709;52.648;4.764;2024-02-14T03:41:28;101152.28;;;13.71;74.95
64388;BME280;50709;52.648;4.764;2024-02-14T03:43:54;101146.28;;;13.54;74.44
64388;BME280;50709;52.648;4.764;2024-02-14T03:46:23;101155.88;;;13.58;74.53
64388;BME280;50709;52.648;4.764;2024-02-14T03:48:49;101154.13;;;13.57;74.74
64388;BME280;50709;52.648;4.764;2024-02-14T03:51:14;101162.94;;;13.42;75.48
64388;BME280;50709;52.648;4.764;2024-02-14T03:53:40;101161.97;;;13.65;74.67
64388;BME280;50709;52.648;4.764;2024-02-14T03:56:06;101147.78;;;13.87;73.46
64388;BME280;50709;52.648;4.764;2024-02-14T03:58:35;101150.56;;;13.69;74.50
64388;BME280;50709;52.648;4.764;2024-02-14T04:01:03;101159.25;;;13.72;73.94
64388;BME280;50709;52.648;4.764;2024-02-14T04:03:29;101164.56;;;13.61;74.17
64388;BME280;50709;52.648;4.764;2024-02-14T04:05:54;101154.97;;;13.63;74.82
64388;BME280;50709;52.648;4.764;2024-02-14T04:08:20;101163.78;;;13.35;76.22
64388;BME280;50709;52.648;4.764;2024-02-14T04:10:45;101162.09;;;13.37;75.60
64388;BME280;50709;52.648;4.764;2024-02-14T04:13:11;101179.53;;;13.49;75.72
64388;BME280;50709;52.648;4.764;2024-02-14T04:15:36;101179.50;;;13.53;74.93
64388;BME280;50709;52.648;4.764;2024-02-14T04:18:02;101189.09;;;13.57;74.99
64388;BME280;50709;52.648;4.764;2024-02-14T04:20:29;101172.56;;;13.44;75.69
64388;BME280;50709;52.648;4.764;2024-02-14T04:22:54;101182.97;;;13.58;75.36
64388;BME280;50709;52.648;4.764;2024-02-14T04:25:20;101189.91;;;13.70;75.02
64388;BME280;50709;52.648;4.764;2024-02-14T04:27:46;101187.38;;;13.53;75.69
64388;BME280;50709;52.648;4.764;2024-02-14T04:30:11;101176.94;;;13.39;75.06
64388;BME280;50709;52.648;4.764;2024-02-14T04:32:37;101191.75;;;13.51;74.84
64388;BME280;50709;52.648;4.764;2024-02-14T04:35:02;101196.03;;;13.75;74.15
64388;BME280;50709;52.648;4.764;2024-02-14T04:37:29;101190.81;;;13.68;74.48
64388;BME280;50709;52.648;4.764;2024-02-14T04:39:54;101203.06;;;13.67;74.78
64388;BME280;50709;52.648;4.764;2024-02-14T04:42:20;101194.22;;;13.80;74.11
64388;BME280;50709;52.648;4.764;2024-02-14T04:44:45;101196.97;;;13.56;74.39
64388;BME280;50709;52.648;4.764;2024-02-14T04:47:11;101197.06;;;13.29;74.96
64388;BME280;50709;52.648;4.764;2024-02-14T04:49:36;101204.03;;;13.29;76.36
64388;BME280;50709;52.648;4.764;2024-02-14T04:52:02;101205.69;;;13.62;74.83
64388;BME280;50709;52.648;4.764;2024-02-14T04:54:27;101209.13;;;13.72;74.00
64388;BME280;50709;52.648;4.764;2024-02-14T04:56:53;101215.28;;;13.70;74.68
64388;BME280;50709;52.648;4.764;2024-02-14T04:59:19;101210.94;;;13.69;74.18
64388;BME280;50709;52.648;4.764;2024-02-14T05:01:44;101211.81;;;13.60;74.28
64388;BME280;50709;52.648;4.764;2024-02-14T05:04:10;101216.16;;;13.70;74.20
64388;BME280;50709;52.648;4.764;2024-02-14T05:06:36;101211.78;;;13.68;74.36
64388;BME280;50709;52.648;4.764;2024-02-14T05:09:01;101214.47;;;13.52;75.42
64388;BME280;50709;52.648;4.764;2024-02-14T05:11:27;101218.75;;;13.79;74.79
64388;BME280;50709;52.648;4.764;2024-02-14T05:13:52;101223.88;;;14.03;73.25
64388;BME280;50709;52.648;4.764;2024-02-14T05:16:18;101221.47;;;13.59;74.87
64388;BME280;50709;52.648;4.764;2024-02-14T05:18:44;101200.50;;;13.50;75.02
64388;BME280;50709;52.648;4.764;2024-02-14T05:21:10;101226.66;;;13.70;74.41
64388;BME280;50709;52.648;4.764;2024-02-14T05:23:35;101238.94;;;13.65;75.14
64388;BME280;50709;52.648;4.764;2024-02-14T05:26:02;101233.66;;;13.73;74.98
64388;BME280;50709;52.648;4.764;2024-02-14T05:28:28;101223.22;;;13.54;75.22
64388;BME280;50709;52.648;4.764;2024-02-14T05:30:54;101231.03;;;13.68;75.13
64388;BME280;50709;52.648;4.764;2024-02-14T05:33:20;101247.69;;;13.62;75.42
64388;BME280;50709;52.648;4.764;2024-02-14T05:35:48;101221.47;;;13.58;75.90
64388;BME280;50709;52.648;4.764;2024-02-14T05:38:14;101231.16;;;13.37;76.54
64388;BME280;50709;52.648;4.764;2024-02-14T05:40:40;101251.06;;;13.85;75.15
64388;BME280;50709;52.648;4.764;2024-02-14T05:43:05;101237.25;;;13.45;76.43
64388;BME280;50709;52.648;4.764;2024-02-14T05:45:32;101242.44;;;13.62;75.63
64388;BME280;50709;52.648;4.764;2024-02-14T05:47:58;101247.63;;;13.76;75.21
64388;BME280;50709;52.648;4.764;2024-02-14T05:50:23;101239.78;;;13.66;75.59
64388;BME280;50709;52.648;4.764;2024-02-14T05:52:49;101257.22;;;13.80;75.20
64388;BME280;50709;52.648;4.764;2024-02-14T05:55:14;101257.34;;;13.60;75.21
64388;BME280;50709;52.648;4.764;2024-02-14T05:57:40;101263.44;;;13.59;75.80
64388;BME280;50709;52.648;4.764;2024-02-14T06:00:06;101258.91;;;13.97;73.90
64388;BME280;50709;52.648;4.764;2024-02-14T06:02:32;101257.38;;;13.50;76.18
64388;BME280;50709;52.648;4.764;2024-02-14T06:04:57;101267.81;;;13.63;75.05
64388;BME280;50709;52.648;4.764;2024-02-14T06:07:23;101264.34;;;13.51;76.34
64388;BME280;50709;52.648;4.764;2024-02-14T06:09:48;101280.00;;;13.78;75.51
64388;BME280;50709;52.648;4.764;2024-02-14T06:12:14;101279.06;;;13.92;74.93
64388;BME280;50709;52.648;4.764;2024-02-14T06:14:39;101289.53;;;13.96;75.10
64388;BME280;50709;52.648;4.764;2024-02-14T06:17:05;101284.38;;;13.76;75.30
64388;BME280;50709;52.648;4.764;2024-02-14T06:19:30;101294.03;;;13.65;75.89
64388;BME280;50709;52.648;4.764;2024-02-14T06:21:57;101273.97;;;13.53;75.85
64388;BME280;50709;52.648;4.764;2024-02-14T06:24:23;101296.53;;;13.99;76.11
64388;BME280;50709;52.648;4.764;2024-02-14T06:26:49;101275.56;;;13.90;77.15
64388;BME280;50709;52.648;4.764;2024-02-14T06:29:14;101277.31;;;13.89;76.14
64388;BME280;50709;52.648;4.764;2024-02-14T06:31:40;101291.28;;;13.99;76.45
64388;BME280;50709;52.648;4.764;2024-02-14T06:34:05;101278.91;;;14.21;75.95
64388;BME280;50709;52.648;4.764;2024-02-14T06:36:32;101298.53;;;14.95;74.21
64388;BME280;50709;52.648;4.764;2024-02-14T06:38:57;101301.88;;;15.14;73.80
64388;BME280;50709;52.648;4.764;2024-02-14T06:41:23;101304.81;;;14.80;73.41
64388;BME280;50709;52.648;4.764;2024-02-14T06:43:48;101298.81;;;14.55;74.31
64388;BME280;50709;52.648;4.764;2024-02-14T06:46:14;101301.66;;;14.21;75.03
64388;BME280;50709;52.648;4.764;2024-02-14T06:48:39;101305.69;;;14.82;74.24
64388;BME280;50709;52.648;4.764;2024-02-14T06:51:06;101311.34;;;14.12;73.40
64388;BME280;50709;52.648;4.764;2024-02-14T06:53:32;101314.41;;;14.89;72.73
64388;BME280;50709;52.648;4.764;2024-02-14T06:55:57;101308.38;;;14.74;72.91
64388;BME280;50709;52.648;4.764;2024-02-14T06:58:22;101323.06;;;15.00;73.24
64388;BME280;50709;52.648;4.764;2024-02-14T07:00:48;101317.63;;;15.16;72.08
64388;BME280;50709;52.648;4.764;2024-02-14T07:03:13;101314.34;;;14.92;71.13
64388;BME280;50709;52.648;4.764;2024-02-14T07:05:39;101322.28;;;14.86;73.54
64388;BME280;50709;52.648;4.764;2024-02-14T07:08:04;101311.00;;;14.74;72.26
64388;BME280;50709;52.648;4.764;2024-02-14T07:10:30;101265.72;;;14.29;72.82
64388;BME280;50709;52.648;4.764;2024-02-14T07:12:56;101335.59;;;14.67;72.69
64388;BME280;50709;52.648;4.764;2024-02-14T07:15:21;101323.28;;;14.69;73.90
64388;BME280;50709;52.648;4.764;2024-02-14T07:17:47;101339.22;;;14.38;74.17
64388;BME280;50709;52.648;4.764;2024-02-14T07:20:13;101328.56;;;14.60;74.44
64388;BME280;50709;52.648;4.764;2024-02-14T07:22:38;101339.97;;;14.59;73.11
64388;BME280;50709;52.648;4.764;2024-02-14T07:25:04;101338.34;;;14.45;73.85
64388;BME280;50709;52.648;4.764;2024-02-14T07:27:30;101334.00;;;14.35;74.16
64388;BME280;50709;52.648;4.764;2024-02-14T07:29:56;101335.81;;;14.27;73.31
64388;BME280;50709;52.648;4.764;2024-02-14T07:32:21;101350.81;;;13.94;75.28
64388;BME280;50709;52.648;4.764;2024-02-14T07:34:47;101350.56;;;14.48;74.57
64388;BME280;50709;52.648;4.764;2024-02-14T07:37:13;101347.06;;;14.47;75.07
64388;BME280;50709;52.648;4.764;2024-02-14T07:39:40;101339.16;;;14.51;73.91
64388;BME280;50709;52.648;4.764;2024-02-14T07:42:06;101337.47;;;14.37;74.88
64388;BME280;50709;52.648;4.764;2024-02-14T07:44:32;101353.34;;;14.16;74.43
64388;BME280;50709;52.648;4.764;2024-02-14T07:46:57;101353.19;;;14.50;74.77
64388;BME280;50709;52.648;4.764;2024-02-14T07:49:25;101358.44;;;14.48;74.18
64388;BME280;50709;52.648;4.764;2024-02-14T07:51:51;101355.09;;;14.21;75.33
64388;BME280;50709;52.648;4.764;2024-02-14T07:54:16;101351.53;;;14.36;74.38
64388;BME280;50709;52.648;4.764;2024-02-14T07:56:42;101356.72;;;14.47;75.07
64388;BME280;50709;52.648;4.764;2024-02-14T07:59:07;101362.81;;;14.47;73.42
64388;BME280;50709;52.648;4.764;2024-02-14T08:01:32;101380.28;;;14.61;74.38
64388;BME280;50709;52.648;4.764;2024-02-14T08:03:58;101373.44;;;14.32;74.52
64388;BME280;50709;52.648;4.764;2024-02-14T08:06:25;101370.72;;;14.46;74.25
64388;BME280;50709;52.648;4.764;2024-02-14T08:08:50;101366.50;;;14.12;74.37
64388;BME280;50709;52.648;4.764;2024-02-14T08:11:19;101366.47;;;14.16;75.21
64388;BME280;50709;52.648;4.764;2024-02-14T08:13:45;101376.13;;;14.13;74.85
64388;BME280;50709;52.648;4.764;2024-02-14T08:16:10;101341.97;;;14.21;74.29
64388;BME280;50709;52.648;4.764;2024-02-14T08:18:36;101370.00;;;14.15;75.25
64388;BME280;50709;52.648;4.764;2024-02-14T08:21:02;101365.69;;;14.01;75.75
64388;BME280;50709;52.648;4.764;2024-02-14T08:23:29;101373.31;;;14.49;74.69
64388;BME280;50709;52.648;4.764;2024-02-14T08:25:54;101363.88;;;14.17;74.64
64388;BME280;50709;52.648;4.764;2024-02-14T08:28:20;101369.00;;;14.43;74.34
64388;BME280;50709;52.648;4.764;2024-02-14T08:30:46;101367.28;;;14.36;74.41
64388;BME280;50709;52.648;4.764;2024-02-14T08:33:12;101370.75;;;14.43;74.74
64388;BME280;50709;52.648;4.764;2024-02-14T08:35:38;101363.78;;;14.34;74.61
64388;BME280;50709;52.648;4.764;2024-02-14T08:38:04;101376.03;;;14.37;74.65
64388;BME280;50709;52.648;4.764;2024-02-14T08:40:29;101372.56;;;14.30;74.72
64388;BME280;50709;52.648;4.764;2024-02-14T08:42:54;101377.84;;;14.24;74.89
64388;BME280;50709;52.648;4.764;2024-02-14T08:45:20;101379.66;;;14.09;76.32
64388;BME280;50709;52.648;4.764;2024-02-14T08:47:45;101371.75;;;14.19;75.97
64388;BME280;50709;52.648;4.764;2024-02-14T08:50:11;101374.31;;;14.25;75.87
64388;BME280;50709;52.648;4.764;2024-02-14T08:52:36;101373.47;;;14.24;74.23
64388;BME280;50709;52.648;4.764;2024-02-14T08:55:03;101363.72;;;14.50;74.79
64388;BME280;50709;52.648;4.764;2024-02-14T08:57:29;101386.47;;;14.54;73.93
64388;BME280;50709;52.648;4.764;2024-02-14T09:00:16;101392.78;;;14.12;75.69
64388;BME280;50709;52.648;4.764;2024-02-14T09:02:45;101390.22;;;13.91;76.79
64388;BME280;50709;52.648;4.764;2024-02-14T09:05:12;101376.19;;;14.01;77.04
64388;BME280;50709;52.648;4.764;2024-02-14T09:07:39;101389.19;;;14.27;75.19
64388;BME280;50709;52.648;4.764;2024-02-14T09:10:08;101368.16;;;14.34;74.78
64388;BME280;50709;52.648;4.764;2024-02-14T09:12:33;101371.69;;;14.25;74.37
64388;BME280;50709;52.648;4.764;2024-02-14T09:14:59;101395.38;;;14.16;75.98
64388;BME280;50709;52.648;4.764;2024-02-14T09:17:24;101402.28;;;14.38;75.05
64388;BME280;50709;52.648;4.764;2024-02-14T09:19:49;101386.47;;;14.54;73.86
64388;BME280;50709;52.648;4.764;2024-02-14T09:22:16;101392.56;;;14.57;73.72
64388;BME280;50709;52.648;4.764;2024-02-14T09:24:49;101408.44;;;14.40;74.36
64388;BME280;50709;52.648;4.764;2024-02-14T09:27:15;101395.31;;;14.26;75.31
64388;BME280;50709;52.648;4.764;2024-02-14T09:29:41;101390.06;;;14.34;75.62
64388;BME280;50709;52.648;4.764;2024-02-14T09:32:06;101386.69;;;14.04;76.30
64388;BME280;50709;52.648;4.764;2024-02-14T09:34:31;101391.00;;;14.11;75.85
64388;BME280;50709;52.648;4.764;2024-02-14T09:36:57;101378.75;;;14.21;76.07
64388;BME280;50709;52.648;4.764;2024-02-14T09:39:24;101366.47;;;14.20;75.50
64388;BME280;50709;52.648;4.764;2024-02-14T09:41:51;101390.13;;;14.19;75.23
64388;BME280;50709;52.648;4.764;2024-02-14T09:44:21;101390.88;;;14.42;75.58
64388;BME280;50709;52.648;4.764;2024-02-14T09:46:47;101376.81;;;14.53;73.93
64388;BME280;50709;52.648;4.764;2024-02-14T09:49:14;101393.56;;;14.32;75.41
64388;BME280;50709;52.648;4.764;2024-02-14T09:51:43;101398.97;;;13.91;76.61
64388;BME280;50709;52.648;4.764;2024-02-14T09:54:10;101398.03;;;14.12;76.33
64388;BME280;50709;52.648;4.764;2024-02-14T09:56:36;101397.97;;;14.31;75.34
64388;BME280;50709;52.648;4.764;2024-02-14T09:59:02;101397.09;;;14.32;75.82
64388;BME280;50709;52.648;4.764;2024-02-14T10:01:28;101404.06;;;14.33;76.16
64388;BME280;50709;52.648;4.764;2024-02-14T10:03:54;101391.81;;;14.30;76.56
64388;BME280;50709;52.648;4.764;2024-02-14T10:06:21;101407.63;;;14.20;76.71
64388;BME280;50709;52.648;4.764;2024-02-14T10:08:47;101405.78;;;14.37;76.85
64388;BME280;50709;52.648;4.764;2024-02-14T10:11:14;101416.28;;;14.50;75.50
64388;BME280;50709;52.648;4.764;2024-02-14T10:13:41;101419.78;;;14.42;75.30
64388;BME280;50709;52.648;4.764;2024-02-14T10:16:06;101408.41;;;14.42;74.78
64388;BME280;50709;52.648;4.764;2024-02-14T10:18:34;101419.75;;;14.56;75.30
64388;BME280;50709;52.648;4.764;2024-02-14T10:21:00;101422.47;;;14.36;75.86
64388;BME280;50709;52.648;4.764;2024-02-14T10:23:27;101413.66;;;14.42;75.82
64388;BME280;50709;52.648;4.764;2024-02-14T10:25:53;101411.16;;;14.12;76.10
64388;BME280;50709;52.648;4.764;2024-02-14T10:28:21;101422.56;;;14.07;77.41
64388;BME280;50709;52.648;4.764;2024-02-14T10:30:47;101429.41;;;14.46;75.48
64388;BME280;50709;52.648;4.764;2024-02-14T10:33:15;101432.91;;;14.49;75.20
64388;BME280;50709;52.648;4.764;2024-02-14T10:35:41;101420.66;;;14.46;75.28
64388;BME280;50709;52.648;4.764;2024-02-14T10:38:08;101425.88;;;14.51;74.92
64388;BME280;50709;52.648;4.764;2024-02-14T10:40:37;101432.94;;;14.47;75.16
64388;BME280;50709;52.648;4.764;2024-02-14T10:43:05;101432.78;;;14.81;74.27
64388;BME280;50709;52.648;4.764;2024-02-14T10:45:31;101442.53;;;14.51;75.41
64388;BME280;50709;52.648;4.764;2024-02-14T10:47:57;101423.09;;;14.86;74.25
64388;BME280;50709;52.648;4.764;2024-02-14T10:50:28;101433.78;;;14.52;74.56
64388;BME280;50709;52.648;4.764;2024-02-14T10:52:57;101442.53;;;14.48;75.73
64388;BME280;50709;52.648;4.764;2024-02-14T10:55:24;101426.78;;;14.50;75.28
64388;BME280;50709;52.648;4.764;2024-02-14T10:57:53;101437.28;;;14.53;75.48
64388;BME280;50709;52.648;4.764;2024-02-14T11:00:20;101438.16;;;14.52;75.11
64388;BME280;50709;52.648;4.764;2024-02-14T11:02:47;101431.97;;;14.59;74.62
64388;BME280;50709;52.648;4.764;2024-02-14T11:05:15;101436.25;;;14.83;74.24
64388;BME280;50709;52.648;4.764;2024-02-14T11:07:46;101431.22;;;14.29;75.90
64388;BME280;50709;52.648;4.764;2024-02-14T11:10:16;101437.31;;;14.42;75.96
64388;BME280;50709;52.648;4.764;2024-02-14T11:12:43;101431.00;;;14.82;74.54
64388;BME280;50709;52.648;4.764;2024-02-14T11:15:17;101421.44;;;14.71;73.89
64388;BME280;50709;52.648;4.764;2024-02-14T11:17:43;101440.78;;;14.52;75.36
64388;BME280;50709;52.648;4.764;2024-02-14T11:20:35;101385.75;;;14.24;75.03
64388;BME280;50709;52.648;4.764;2024-02-14T11:23:05;101413.53;;;14.70;74.70
64388;BME280;50709;52.648;4.764;2024-02-14T11:25:37;101390.94;;;14.32;74.10
64388;BME280;50709;52.648;4.764;2024-02-14T11:28:17;101405.69;;;14.65;73.60
64388;BME280;50709;52.648;4.764;2024-02-14T11:30:45;101404.72;;;14.82;73.94
64388;BME280;50709;52.648;4.764;2024-02-14T11:33:18;101422.28;;;14.75;74.41
64388;BME280;50709;52.648;4.764;2024-02-14T11:35:48;101424.09;;;14.62;75.38
64388;BME280;50709;52.648;4.764;2024-02-14T11:38:18;101416.13;;;14.80;75.33
64388;BME280;50709;52.648;4.764;2024-02-14T11:40:44;101417.94;;;14.61;75.44
64388;BME280;50709;52.648;4.764;2024-02-14T11:43:19;101421.44;;;14.59;75.44
64388;BME280;50709;52.648;4.764;2024-02-14T11:45:47;101422.41;;;14.47;75.92
64388;BME280;50709;52.648;4.764;2024-02-14T11:48:16;101415.34;;;14.65;75.64
64388;BME280;50709;52.648;4.764;2024-02-14T11:50:43;101419.69;;;14.70;75.64
64388;BME280;50709;52.648;4.764;2024-02-14T11:53:15;101425.88;;;14.51;77.13
64388;BME280;50709;52.648;4.764;2024-02-14T11:55:45;101398.69;;;14.58;76.05
64388;BME280;50709;52.648;4.764;2024-02-14T11:58:15;101376.00;;;14.38;76.85
64388;BME280;50709;52.648;4.764;2024-02-14T12:00:44;101418.72;;;14.85;75.94
64388;BME280;50709;52.648;4.764;2024-02-14T12:03:12;101421.44;;;14.59;77.06
64388;BME280;50709;52.648;4.764;2024-02-14T12:05:38;101423.22;;;14.57;77.12
64388;BME280;50709;52.648;4.764;2024-02-14T12:08:07;101405.59;;;14.82;75.78
64388;BME280;50709;52.648;4.764;2024-02-14T12:10:33;101421.22;;;15.01;75.13
64388;BME280;50709;52.648;4.764;2024-02-14T12:13:20;101432.00;;;14.56;76.69
64388;BME280;50709;52.648;4.764;2024-02-14T12:15:48;101430.25;;;14.55;76.18
64388;BME280;50709;52.648;4.764;2024-02-14T12:18:15;101439.84;;;14.68;76.14
64388;BME280;50709;52.648;4.764;2024-02-14T12:20:42;101426.78;;;14.50;77.22
64388;BME280;50709;52.648;4.764;2024-02-14T12:23:14;101421.38;;;14.77;76.65
64388;BME280;50709;52.648;4.764;2024-02-14T12:25:40;101422.28;;;14.73;75.29
64388;BME280;50709;52.648;4.764;2024-02-14T12:28:06;101414.47;;;14.67;75.98
64388;BME280;50709;52.648;4.764;2024-02-14T12:33:14;101413.44;;;14.88;75.37
64388;BME280;50709;52.648;4.764;2024-02-14T12:35:44;101414.28;;;14.92;75.54
64388;BME280;50709;52.648;4.764;2024-02-14T12:38:10;101404.78;;;14.71;76.28
64388;BME280;50709;52.648;4.764;2024-02-14T12:40:36;101405.72;;;14.63;76.57
64388;BME280;50709;52.648;4.764;2024-02-14T12:43:01;101410.94;;;14.71;75.93
64388;BME280;50709;52.648;4.764;2024-02-14T12:45:27;101414.53;;;14.42;77.02
64388;BME280;50709;52.648;4.764;2024-02-14T12:47:52;101400.53;;;14.37;76.95
64388;BME280;50709;52.648;4.764;2024-02-14T12:50:18;101404.88;;;14.49;76.87